Airport Name : Sumburgh

Other Name : Sumburgh

ICAO : EGPB

IATA : LSI

FAA :

Latitude : 59.878889

Longitude : -1.295556

Country : United Kingdom

Local Date and Time : 5/19/2019 7:45:00 AM

 

TAF (Terminal Aerodrome Forecast)

TAF EGPB 190458Z 1906/1915 10008KT 9999 SCT007 BKN015 TEMPO 1906/1915 4000 RADZ BR BKN004 PROB40 TEMPO 1906/1908 0500 FG OVC001

 

METAR (METeorological Aerodrome Report)

EGPB 190620Z AUTO 11007KT 9999 OVC002/// 10/10 Q1010 RERA

EGPB 190550Z AUTO 10007KT 4000 BR OVC002/// 10/10 Q1010

EGPB 190520Z AUTO 09008KT 0600 FG OVC002/// 10/10 Q1010

EGPB 190450Z AUTO 08006KT 0500 FG OVC002/// 10/09 Q1010

EGPB 190420Z 10005KT 0800 R09/P1300 FG VV/// 10/09 Q1010

EGPB 190350Z 11005KT 8000 SCT004 BKN008 10/09 Q1010 TEMPO 4000 BR BKN004

EGPB 190320Z 11008KT 6000 -DZ SCT002 BKN003 10/09 Q1010 TEMPO 4000 BR

EGPB 190250Z 12007KT 7000 -DZ SCT003 BKN006 10/09 Q1010 TEMPO 4000 BR BKN003